Time;durP1;ratioP1;P1;durP2;ratioP2;P2;SDS_P1;SDS_P2;PMS_P1;PMS_P2;Temp;Humidity;BMP_temperature;BMP_pressure;BME280_temperature;BME280_humidity;BME280_pressure;Samples;Min_cycle;Max_cycle;Signal;HPM_P1;HPM_P2
2021/07/07 00:00:12;;;;;;;0.82;0.82;;;;;;;19.40;72.15;96557.94;5012375;28;20057;-75
2021/07/07 00:02:41;;;;;;;1.90;1.10;;;;;;;19.31;72.22;96563.63;5012135;28;20050;-75
2021/07/07 00:05:11;;;;;;;1.65;1.10;;;;;;;19.27;73.07;96569.63;5012248;28;20136;-76
2021/07/07 00:07:39;;;;;;;1.08;0.98;;;;;;;19.24;72.62;96572.72;5012410;28;20105;-76
2021/07/07 00:10:09;;;;;;;1.95;1.20;;;;;;;19.20;73.59;96583.00;5012305;28;20129;-76
2021/07/07 00:12:37;;;;;;;2.42;1.10;;;;;;;19.23;74.00;96590.44;5012383;28;20458;-75
2021/07/07 00:15:06;;;;;;;2.17;1.30;;;;;;;19.24;73.89;96575.38;5011801;28;20065;-75
2021/07/07 00:17:35;;;;;;;1.77;1.02;;;;;;;19.18;73.44;96565.75;5012092;28;20504;-77
2021/07/07 00:20:05;;;;;;;1.30;1.23;;;;;;;19.10;73.32;96553.72;5012418;28;20080;-77
2021/07/07 00:22:32;;;;;;;1.23;1.00;;;;;;;19.06;73.21;96560.50;5015701;28;20550;-77
2021/07/07 00:25:00;;;;;;;1.27;1.15;;;;;;;19.04;73.65;96559.94;5015423;28;20065;-78
2021/07/07 00:27:27;;;;;;;2.08;1.15;;;;;;;19.05;73.75;96556.28;5016069;28;20049;-77
2021/07/07 00:29:55;;;;;;;1.83;1.33;;;;;;;19.06;75.11;96563.16;5016034;28;20512;-77
2021/07/07 00:32:23;;;;;;;1.73;1.30;;;;;;;19.11;74.87;96560.59;5016059;28;20053;-78
2021/07/07 00:34:52;;;;;;;2.58;1.25;;;;;;;19.09;73.80;96562.69;5014917;28;20054;-77
2021/07/07 00:37:19;;;;;;;1.25;1.15;;;;;;;19.03;74.28;96563.63;5015989;28;20053;-75
2021/07/07 00:39:47;;;;;;;1.75;1.35;;;;;;;19.00;74.47;96556.97;5015832;28;20092;-77
2021/07/07 00:42:14;;;;;;;3.15;1.40;;;;;;;18.97;74.48;96554.00;5015878;28;20050;-77
2021/07/07 00:44:42;;;;;;;1.65;1.17;;;;;;;18.93;74.54;96559.78;5014450;28;20420;-77
2021/07/07 00:47:10;;;;;;;3.42;1.30;;;;;;;18.90;74.61;96554.94;5014064;28;20053;-77
2021/07/07 00:49:37;;;;;;;2.50;1.27;;;;;;;18.86;74.46;96553.81;5014087;28;20053;-77
2021/07/07 00:52:08;;;;;;;1.80;1.45;;;;;;;18.84;74.85;96561.16;5013737;28;20050;-77
2021/07/07 00:54:36;;;;;;;1.52;1.20;;;;;;;18.89;75.77;96571.03;5013118;28;20054;-78
2021/07/07 00:57:04;;;;;;;1.55;1.30;;;;;;;18.94;75.12;96568.50;5013793;28;20046;-78
2021/07/07 00:59:32;;;;;;;1.40;1.30;;;;;;;18.98;75.87;96571.44;5015445;28;20054;-80
2021/07/07 01:02:01;;;;;;;1.85;1.30;;;;;;;18.99;74.58;96573.06;5015492;28;20716;-78
2021/07/07 01:04:30;;;;;;;2.67;1.25;;;;;;;19.02;74.67;96577.88;5012667;28;20053;-79
2021/07/07 01:06:57;;;;;;;1.30;1.20;;;;;;;19.05;74.18;96582.72;5013420;28;20046;-78
2021/07/07 01:09:26;;;;;;;1.30;1.17;;;;;;;19.06;74.09;96586.94;5014051;28;20060;-79
2021/07/07 01:11:53;;;;;;;2.90;1.40;;;;;;;19.08;74.54;96598.09;5013817;28;20049;-79
2021/07/07 01:14:21;;;;;;;1.63;1.30;;;;;;;19.11;73.91;96598.44;5012779;28;20054;-78
2021/07/07 01:16:50;;;;;;;4.25;1.20;;;;;;;19.15;74.25;96604.03;5013392;28;20141;-77
2021/07/07 01:19:17;;;;;;;2.83;1.20;;;;;;;19.19;74.00;96605.16;5014486;28;20050;-77
2021/07/07 01:21:48;;;;;;;2.67;1.20;;;;;;;19.16;73.25;96610.94;5015135;28;20046;-78
2021/07/07 01:24:16;;;;;;;1.33;1.02;;;;;;;19.16;74.35;96626.81;5014278;28;20054;-77
2021/07/07 01:26:45;;;;;;;2.95;1.40;;;;;;;19.17;74.26;96627.59;5015018;28;20050;-77
2021/07/07 01:29:13;;;;;;;4.10;1.70;;;;;;;19.18;74.77;96626.59;5015240;28;20049;-78
2021/07/07 01:31:42;;;;;;;1.63;1.30;;;;;;;19.19;74.38;96621.03;5014901;28;20057;-77
2021/07/07 01:34:10;;;;;;;2.33;1.30;;;;;;;19.20;74.37;96614.72;5014329;28;20427;-77
2021/07/07 01:36:38;;;;;;;2.25;1.77;;;;;;;19.13;73.89;96606.09;5014843;28;20050;-77
2021/07/07 01:39:10;;;;;;;1.60;1.50;;;;;;;19.00;74.01;96607.22;5015153;28;20412;-77
2021/07/07 01:41:37;;;;;;;3.28;1.80;;;;;;;18.91;74.63;96613.88;5016297;28;20057;-79
2021/07/07 01:44:06;;;;;;;4.45;2.38;;;;;;;18.90;75.76;96618.38;5015009;28;20053;-77
2021/07/07 01:46:34;;;;;;;2.97;1.83;;;;;;;18.89;74.84;96595.63;5014798;28;20065;-78
2021/07/07 01:49:02;;;;;;;3.50;2.10;;;;;;;18.85;74.52;96605.06;5014604;28;20137;-79
2021/07/07 01:51:30;;;;;;;3.70;1.70;;;;;;;18.83;75.25;96611.63;5014898;28;20054;-77
2021/07/07 01:53:57;;;;;;;8.25;2.22;;;;;;;18.84;75.44;96608.72;5013866;28;20056;-78
2021/07/07 01:56:26;;;;;;;4.10;1.92;;;;;;;18.86;74.58;96608.50;5014605;28;20058;-77
2021/07/07 01:58:53;;;;;;;1.35;1.25;;;;;;;18.78;73.89;96614.16;5014510;28;20054;-77
2021/07/07 02:01:21;;;;;;;1.58;1.30;;;;;;;18.68;73.32;96609.44;5014377;28;20503;-79
2021/07/07 02:03:49;;;;;;;1.33;1.10;;;;;;;18.61;74.10;96608.78;5013628;28;20455;-78
2021/07/07 02:06:16;;;;;;;8.15;3.10;;;;;;;18.63;75.85;96604.03;5014687;28;20061;-77
2021/07/07 02:08:44;;;;;;;0.90;0.90;;;;;;;18.59;74.15;96590.50;5014383;28;20045;-78
2021/07/07 02:11:12;;;;;;;1.13;0.90;;;;;;;18.54;74.28;96593.00;5014515;28;20057;-77
2021/07/07 02:13:41;;;;;;;1.75;1.10;;;;;;;18.49;74.29;96588.44;5013544;28;20050;-78
2021/07/07 02:16:08;;;;;;;2.88;1.25;;;;;;;18.46;74.82;96593.41;5014297;28;20050;-77
2021/07/07 02:18:36;;;;;;;2.92;1.10;;;;;;;18.42;74.88;96594.88;5014304;28;20180;-77
2021/07/07 02:21:04;;;;;;;16.25;5.00;;;;;;;18.42;76.50;96606.25;5014189;28;20415;-77
2021/07/07 02:23:31;;;;;;;8.25;2.80;;;;;;;18.48;77.24;96600.06;5013420;28;20054;-78
2021/07/07 02:25:59;;;;;;;5.38;2.47;;;;;;;18.51;76.79;96585.56;5014272;28;20053;-78
2021/07/07 02:28:26;;;;;;;3.95;1.88;;;;;;;18.53;77.09;96586.94;5013774;28;20053;-77
2021/07/07 02:30:57;;;;;;;3.70;2.10;;;;;;;18.55;76.67;96588.56;5013764;28;20054;-77
2021/07/07 02:33:25;;;;;;;14.90;5.40;;;;;;;18.56;77.43;96590.94;5013144;28;20056;-77
2021/07/07 02:35:53;;;;;;;4.57;2.40;;;;;;;18.58;77.52;96588.09;5013813;28;20053;-76
2021/07/07 02:38:23;;;;;;;2.63;1.08;;;;;;;18.59;76.02;96600.28;5013664;28;20049;-77
2021/07/07 02:40:53;;;;;;;2.90;1.80;;;;;;;18.62;77.45;96599.78;5013413;28;20046;-77
2021/07/07 02:43:21;;;;;;;1.35;1.15;;;;;;;18.67;77.22;96600.72;5012300;28;20058;-77
2021/07/07 02:45:49;;;;;;;2.85;1.33;;;;;;;18.69;76.98;96592.53;5013567;28;20049;-78
2021/07/07 02:48:19;;;;;;;0.80;0.80;;;;;;;18.73;76.59;96596.31;5013590;28;20076;-77
2021/07/07 02:50:47;;;;;;;1.42;1.15;;;;;;;18.68;75.28;96591.75;5013460;28;20047;-77
2021/07/07 02:53:17;;;;;;;1.45;1.35;;;;;;;18.64;75.46;96589.81;5012549;28;20053;-77
2021/07/07 02:55:45;;;;;;;5.03;1.17;;;;;;;18.60;75.40;96586.00;5013697;28;20539;-77
2021/07/07 02:58:13;;;;;;;1.75;1.48;;;;;;;18.59;75.58;96573.84;5013371;28;20050;-78
2021/07/07 03:00:43;;;;;;;4.63;1.75;;;;;;;18.54;75.23;96561.31;5013272;28;20054;-78
2021/07/07 03:03:13;;;;;;;3.10;1.60;;;;;;;18.50;75.28;96555.72;5012216;28;20046;-78
2021/07/07 03:05:44;;;;;;;2.80;1.52;;;;;;;18.42;75.63;96547.34;5013236;28;20072;-77
2021/07/07 03:08:13;;;;;;;2.58;1.88;;;;;;;18.32;75.59;96542.66;5012982;28;20050;-76
2021/07/07 03:10:42;;;;;;;3.38;1.58;;;;;;;18.25;76.08;96547.25;5013186;28;20401;-78
2021/07/07 03:13:10;;;;;;;3.85;1.50;;;;;;;18.24;77.28;96556.22;5012379;28;20056;-78
2021/07/07 03:15:38;;;;;;;4.50;2.00;;;;;;;18.30;77.68;96568.47;5012977;28;20500;-77
2021/07/07 03:18:07;;;;;;;4.60;2.15;;;;;;;18.37;77.95;96566.53;5013040;28;20562;-77
2021/07/07 03:20:35;;;;;;;3.17;1.48;;;;;;;18.42;78.05;96571.91;5012863;28;20463;-77
2021/07/07 03:23:05;;;;;;;4.60;2.47;;;;;;;18.48;77.68;96578.13;5012321;28;20049;-78
2021/07/07 03:25:33;;;;;;;3.75;2.00;;;;;;;18.48;77.51;96594.75;5013274;28;20056;-78
2021/07/07 03:28:01;;;;;;;2.70;2.03;;;;;;;18.49;78.10;96604.28;5012949;28;20049;-77
2021/07/07 03:30:28;;;;;;;2.22;1.50;;;;;;;18.53;78.19;96608.06;5012897;28;20042;-77
2021/07/07 03:32:58;;;;;;;3.17;1.77;;;;;;;18.57;78.13;96613.72;5012120;28;20064;-77
2021/07/07 03:35:27;;;;;;;3.72;2.38;;;;;;;18.60;78.17;96612.44;5012546;28;20050;-78
2021/07/07 03:37:54;;;;;;;2.70;1.90;;;;;;;18.55;76.76;96609.69;5016453;22;20054;-77
2021/07/07 03:40:25;;;;;;;1.70;1.42;;;;;;;18.47;76.85;96616.91;4992970;28;20049;-76
2021/07/07 03:42:53;;;;;;;1.75;1.65;;;;;;;18.43;76.73;96618.44;4992562;28;20054;-76
2021/07/07 03:45:21;;;;;;;1.88;1.77;;;;;;;18.39;76.85;96627.84;4993473;28;20050;-77
2021/07/07 03:47:49;;;;;;;10.48;4.28;;;;;;;18.37;78.04;96622.00;4993121;28;20058;-77
2021/07/07 03:50:17;;;;;;;4.18;1.73;;;;;;;18.36;77.20;96632.78;4993420;28;20057;-77
2021/07/07 03:52:46;;;;;;;9.20;3.78;;;;;;;18.36;78.04;96638.84;4992678;28;20050;-77
2021/07/07 03:55:18;;;;;;;5.03;3.33;;;;;;;18.36;78.95;96641.50;4992373;28;20058;-77
2021/07/07 03:57:47;;;;;;;2.28;2.10;;;;;;;18.35;77.61;96642.56;4992724;28;20120;-77
2021/07/07 04:00:18;;;;;;;2.60;1.50;;;;;;;18.34;77.77;96640.94;4992767;28;20078;-77
2021/07/07 04:02:45;;;;;;;2.95;1.52;;;;;;;18.33;77.58;96645.41;4992491;28;20053;-77
2021/07/07 04:05:13;;;;;;;3.28;2.00;;;;;;;18.35;77.66;96642.56;4992808;28;20504;-76
2021/07/07 04:07:43;;;;;;;2.58;1.77;;;;;;;18.37;77.13;96647.59;4992880;28;20061;-77
2021/07/07 04:10:13;;;;;;;7.18;3.72;;;;;;;18.40;78.01;96650.56;4992981;28;20471;-77
2021/07/07 04:12:42;;;;;;;2.70;2.17;;;;;;;18.42;77.59;96651.16;4992532;28;20513;-76
2021/07/07 04:15:13;;;;;;;2.58;1.90;;;;;;;18.43;77.46;96654.59;4992751;28;20055;-77
2021/07/07 04:17:41;;;;;;;2.00;1.90;;;;;;;18.45;77.39;96650.69;4993097;28;20108;-77
2021/07/07 04:20:12;;;;;;;3.90;2.30;;;;;;;18.48;77.52;96652.09;4992870;28;20046;-77
2021/07/07 04:22:40;;;;;;;4.60;2.67;;;;;;;18.52;78.66;96643.47;4992383;28;20531;-77
2021/07/07 04:25:10;;;;;;;6.68;3.15;;;;;;;18.57;79.23;96649.88;4992280;28;20054;-77
2021/07/07 04:27:38;;;;;;;4.00;2.13;;;;;;;18.53;77.68;96647.69;4992745;28;20058;-77
2021/07/07 04:30:08;;;;;;;3.92;3.00;;;;;;;18.52;77.82;96637.38;4992706;28;20042;-77
2021/07/07 04:32:37;;;;;;;8.00;4.35;;;;;;;18.53;78.60;96646.91;4992702;28;20061;-77
2021/07/07 04:35:07;;;;;;;6.13;3.80;;;;;;;18.51;77.10;96638.41;4992453;28;20046;-78
2021/07/07 04:37:35;;;;;;;5.40;3.70;;;;;;;18.46;77.40;96639.09;4992476;28;20050;-77
2021/07/07 04:40:02;;;;;;;4.50;3.60;;;;;;;18.44;77.38;96648.28;4992302;28;20501;-76
2021/07/07 04:42:30;;;;;;;3.90;3.55;;;;;;;18.41;77.13;96646.91;4992372;28;20054;-75
2021/07/07 04:44:57;;;;;;;4.15;3.65;;;;;;;18.40;77.40;96655.06;4991490;28;20531;-76
2021/07/07 04:47:25;;;;;;;18.75;11.07;;;;;;;18.41;78.92;96656.66;4992663;28;20194;-76
2021/07/07 04:49:54;;;;;;;10.27;5.10;;;;;;;18.43;78.29;96659.88;4992705;28;20069;-76
2021/07/07 04:52:21;;;;;;;7.38;4.13;;;;;;;18.44;78.22;96656.22;4993453;28;20053;-76
2021/07/07 04:54:49;;;;;;;5.30;4.30;;;;;;;18.40;77.62;96653.22;4992407;28;20112;-76
2021/07/07 04:57:16;;;;;;;5.35;3.72;;;;;;;18.36;77.80;96664.47;4992805;28;20057;-76
2021/07/07 04:59:44;;;;;;;4.90;4.03;;;;;;;18.35;78.32;96679.53;4992901;28;20054;-76
2021/07/07 05:02:11;;;;;;;5.25;3.80;;;;;;;18.38;78.29;96675.63;4992715;28;20062;-76
2021/07/07 05:04:39;;;;;;;8.45;4.40;;;;;;;18.35;77.56;96684.00;4991846;28;20046;-76
2021/07/07 05:07:08;;;;;;;6.85;5.03;;;;;;;18.33;79.15;96681.59;4993250;28;20058;-75
2021/07/07 05:09:36;;;;;;;7.53;4.20;;;;;;;18.36;79.06;96696.97;4995944;28;20054;-76
2021/07/07 05:12:04;;;;;;;4.00;3.58;;;;;;;18.30;77.89;96695.22;4996062;28;20051;-76
2021/07/07 05:14:32;;;;;;;4.55;4.13;;;;;;;18.23;78.14;96694.53;4995106;28;20057;-76
2021/07/07 05:16:59;;;;;;;5.43;4.57;;;;;;;18.18;77.89;96683.88;4995783;28;20050;-75
2021/07/07 05:19:27;;;;;;;4.50;3.90;;;;;;;18.11;77.81;96695.31;5019893;28;20030;-75
2021/07/07 05:21:54;;;;;;;6.20;4.20;;;;;;;18.09;78.17;96696.59;5021351;28;20032;-76
2021/07/07 05:24:23;;;;;;;5.25;4.30;;;;;;;18.03;77.99;96687.72;4999781;28;20046;-76
2021/07/07 05:26:50;;;;;;;4.68;3.40;;;;;;;18.00;78.31;96682.13;4996256;28;20053;-76
2021/07/07 05:29:18;;;;;;;3.35;3.08;;;;;;;17.99;78.27;96675.22;5006222;28;20030;-74
2021/07/07 05:31:45;;;;;;;4.38;3.97;;;;;;;17.97;78.56;96667.53;5020463;28;20050;-75
2021/07/07 05:34:13;;;;;;;4.72;3.50;;;;;;;17.96;78.54;96658.00;4998330;28;20046;-76
2021/07/07 05:36:40;;;;;;;3.65;3.33;;;;;;;17.96;78.64;96650.09;4995366;28;20065;-76
2021/07/07 05:39:08;;;;;;;4.35;3.05;;;;;;;17.94;78.83;96643.44;4995539;28;20420;-76
2021/07/07 05:41:57;;;;;;;3.70;3.40;;;;;;;17.89;79.14;96650.19;4994935;28;20524;-76
2021/07/07 05:44:25;;;;;;;8.55;3.95;;;;;;;17.87;79.93;96660.16;4995156;28;20137;-76
2021/07/07 05:46:52;;;;;;;6.13;3.70;;;;;;;17.90;80.59;96649.16;4995158;28;20424;-77
2021/07/07 05:49:20;;;;;;;4.72;3.50;;;;;;;17.93;80.12;96663.75;4995364;28;20129;-78
2021/07/07 05:51:48;;;;;;;5.60;3.95;;;;;;;17.89;79.62;96671.31;4995458;28;20073;-78
2021/07/07 05:54:15;;;;;;;4.07;3.22;;;;;;;17.91;80.33;96671.09;4995090;28;20054;-79
2021/07/07 05:56:43;;;;;;;4.82;3.83;;;;;;;17.96;80.83;96660.66;4995442;28;20054;-79
2021/07/07 05:59:12;;;;;;;5.43;4.20;;;;;;;17.99;80.27;96659.38;4995277;28;20512;-79
2021/07/07 06:01:39;;;;;;;4.18;3.78;;;;;;;18.01;80.54;96671.31;4995212;28;20057;-78
2021/07/07 06:04:07;;;;;;;7.00;5.18;;;;;;;18.07;81.03;96674.91;4997679;28;20046;-80
2021/07/07 06:06:37;;;;;;;5.57;4.93;;;;;;;18.13;81.17;96676.63;5004087;28;20519;-73
2021/07/07 06:09:04;;;;;;;8.18;5.05;;;;;;;18.19;81.37;96685.47;4990494;28;20112;-74
2021/07/07 06:11:32;;;;;;;7.15;4.07;;;;;;;18.23;80.97;96713.81;4989436;28;20047;-73
2021/07/07 06:13:59;;;;;;;7.28;4.32;;;;;;;18.32;81.50;96711.66;4989474;28;20050;-73
2021/07/07 06:16:28;;;;;;;5.57;4.53;;;;;;;18.39;81.73;96699.16;4993389;28;20057;-73
2021/07/07 06:18:56;;;;;;;3.85;3.20;;;;;;;18.43;81.05;96702.97;4993872;28;20527;-75
2021/07/07 06:21:23;;;;;;;3.83;2.70;;;;;;;18.51;80.99;96710.50;4994562;28;20050;-75
2021/07/07 06:23:51;;;;;;;4.43;3.25;;;;;;;18.56;79.99;96701.09;4993754;28;20073;-75
2021/07/07 06:26:18;;;;;;;4.22;2.47;;;;;;;18.59;80.07;96692.72;4994376;28;20054;-76
2021/07/07 06:28:46;;;;;;;4.57;3.22;;;;;;;18.59;79.35;96701.47;4995410;28;20054;-77
2021/07/07 06:31:13;;;;;;;5.93;5.22;;;;;;;18.57;78.97;96702.72;4994204;28;20120;-76
2021/07/07 06:33:42;;;;;;;5.80;4.78;;;;;;;18.60;79.93;96696.97;4993607;28;20137;-76
2021/07/07 06:36:09;;;;;;;7.50;4.95;;;;;;;18.64;79.40;96719.25;4994147;28;20046;-77
2021/07/07 06:38:37;;;;;;;6.25;5.18;;;;;;;18.67;79.62;96732.81;4994571;28;20053;-76
2021/07/07 06:41:04;;;;;;;6.32;5.00;;;;;;;18.70;79.35;96737.63;4994258;28;20073;-75
2021/07/07 06:43:32;;;;;;;5.53;4.93;;;;;;;18.76;79.71;96722.72;4993602;28;20468;-76
2021/07/07 06:45:59;;;;;;;10.98;6.40;;;;;;;18.79;78.86;96722.28;4994166;28;20050;-76
2021/07/07 06:48:27;;;;;;;8.85;6.43;;;;;;;18.81;78.50;96720.19;4994534;28;20053;-75
2021/07/07 06:50:56;;;;;;;10.27;6.55;;;;;;;18.82;78.36;96726.28;4993801;28;20057;-76
2021/07/07 06:53:25;;;;;;;10.13;6.05;;;;;;;18.80;78.06;96715.13;4993898;28;20445;-75
2021/07/07 06:55:52;;;;;;;22.67;6.65;;;;;;;18.83;79.04;96718.13;4994249;28;20050;-76
2021/07/07 06:58:20;;;;;;;8.98;5.88;;;;;;;18.89;78.91;96727.78;4994623;28;20061;-75
2021/07/07 07:00:48;;;;;;;7.55;5.72;;;;;;;18.94;78.99;96725.25;4994237;28;20050;-76
2021/07/07 07:03:15;;;;;;;6.68;5.25;;;;;;;19.02;79.89;96737.31;4992497;28;20056;-75
2021/07/07 07:05:43;;;;;;;7.60;5.80;;;;;;;19.07;78.34;96739.25;4994094;28;20054;-76
2021/07/07 07:08:13;;;;;;;9.63;5.65;;;;;;;19.14;79.65;96747.88;4994336;28;20058;-76
2021/07/07 07:10:41;;;;;;;6.72;4.65;;;;;;;19.21;79.85;96751.19;4994025;28;20050;-76
2021/07/07 07:13:08;;;;;;;5.22;4.68;;;;;;;19.25;77.49;96762.91;4992948;28;20046;-76
2021/07/07 07:15:36;;;;;;;8.80;5.50;;;;;;;19.29;79.19;96758.75;4994045;28;20508;-76
2021/07/07 07:18:04;;;;;;;5.63;4.13;;;;;;;19.35;78.64;96765.78;4993667;28;20054;-75
2021/07/07 07:20:32;;;;;;;5.38;4.38;;;;;;;19.40;79.02;96778.28;4993785;28;20050;-76
2021/07/07 07:23:00;;;;;;;4.80;3.83;;;;;;;19.44;78.89;96781.25;4992770;28;20141;-75
2021/07/07 07:25:28;;;;;;;2.70;2.05;;;;;;;19.43;76.11;96788.41;4994195;28;20066;-76
2021/07/07 07:27:56;;;;;;;4.47;3.22;;;;;;;19.46;78.09;96792.41;4993655;28;20504;-75
2021/07/07 07:30:24;;;;;;;4.78;2.38;;;;;;;19.50;77.94;96806.78;4993557;28;20050;-75
2021/07/07 07:32:51;;;;;;;2.72;2.53;;;;;;;19.50;77.21;96801.50;4993052;28;20500;-76
2021/07/07 07:35:22;;;;;;;2.40;2.30;;;;;;;19.48;76.99;96808.84;4993333;28;20081;-75
2021/07/07 07:37:52;;;;;;;2.95;2.20;;;;;;;19.45;77.03;96815.41;4993315;28;20077;-75
2021/07/07 07:40:26;;;;;;;2.03;1.80;;;;;;;19.40;75.81;96822.47;4993892;28;20050;-75
2021/07/07 07:42:55;;;;;;;2.03;1.77;;;;;;;19.35;76.79;96815.22;4992928;28;20088;-75
2021/07/07 07:45:22;;;;;;;2.97;1.95;;;;;;;19.35;77.28;96799.34;4993520;28;20065;-75
2021/07/07 07:47:50;;;;;;;2.83;2.55;;;;;;;19.33;76.35;96796.94;4993275;28;20054;-75
2021/07/07 07:50:18;;;;;;;4.75;2.30;;;;;;;19.28;75.81;96783.59;4993405;28;20516;-75
2021/07/07 07:52:46;;;;;;;10.38;2.10;;;;;;;19.22;76.21;96776.59;4993120;28;20050;-75
2021/07/07 07:55:15;;;;;;;2.60;2.30;;;;;;;19.17;76.27;96783.63;4993719;28;20420;-76
2021/07/07 07:57:43;;;;;;;3.17;1.92;;;;;;;19.12;76.86;96794.88;4993506;28;20058;-75
2021/07/07 08:00:14;;;;;;;1.88;1.77;;;;;;;19.15;77.75;96810.28;4992681;28;20066;-75
2021/07/07 08:02:42;;;;;;;2.50;2.30;;;;;;;19.19;77.59;96805.34;4992407;28;20057;-75
2021/07/07 08:05:11;;;;;;;2.92;2.53;;;;;;;19.19;77.05;96803.50;4992820;28;20094;-76
2021/07/07 08:07:39;;;;;;;2.75;2.15;;;;;;;19.21;77.50;96804.06;4993010;28;20394;-76
2021/07/07 08:10:08;;;;;;;2.35;2.03;;;;;;;19.24;77.77;96795.69;4992629;28;20046;-75
2021/07/07 08:12:36;;;;;;;2.30;2.10;;;;;;;19.27;77.85;96797.06;4991663;28;20046;-75
2021/07/07 08:15:05;;;;;;;2.15;1.95;;;;;;;19.27;76.68;96800.50;4991864;28;20496;-76
2021/07/07 08:17:34;;;;;;;2.20;2.00;;;;;;;19.28;77.74;96810.03;4992392;28;20054;-77
2021/07/07 08:20:03;;;;;;;2.60;2.25;;;;;;;19.33;78.50;96814.66;4992848;28;20543;-76
2021/07/07 08:22:31;;;;;;;2.40;2.20;;;;;;;19.37;78.45;96807.84;4992250;28;20051;-76
2021/07/07 08:24:58;;;;;;;3.28;2.13;;;;;;;19.38;77.97;96808.66;4991826;28;20050;-77
2021/07/07 08:27:26;;;;;;;2.50;2.30;;;;;;;19.37;77.09;96812.34;4992311;28;20047;-76
2021/07/07 08:29:53;;;;;;;1.65;1.55;;;;;;;19.38;77.11;96816.59;4998489;28;20043;-76
2021/07/07 08:32:21;;;;;;;2.85;2.28;;;;;;;19.41;78.07;96811.63;5017379;28;20031;-76
2021/07/07 08:34:50;;;;;;;2.65;2.25;;;;;;;19.45;77.41;96819.91;5013971;28;20054;-77
2021/07/07 08:37:17;;;;;;;2.80;1.95;;;;;;;19.49;78.27;96821.06;4994654;28;20057;-76
2021/07/07 08:39:45;;;;;;;1.48;1.38;;;;;;;19.51;77.22;96824.28;4994810;28;20078;-77
2021/07/07 08:42:12;;;;;;;6.75;2.03;;;;;;;19.51;77.30;96824.28;5005620;28;20030;-77
2021/07/07 08:44:42;;;;;;;2.28;2.08;;;;;;;19.53;78.07;96830.16;5019475;28;20034;-76
2021/07/07 08:47:10;;;;;;;2.13;1.92;;;;;;;19.55;78.06;96838.66;4999005;28;20058;-77
2021/07/07 08:49:38;;;;;;;2.42;1.73;;;;;;;19.58;78.10;96840.03;4996458;28;20524;-77
2021/07/07 08:52:07;;;;;;;1.50;1.33;;;;;;;19.55;76.69;96839.47;4996418;28;20054;-76
2021/07/07 08:54:35;;;;;;;7.30;3.05;;;;;;;19.52;75.65;96836.47;4995788;28;20445;-76
2021/07/07 08:57:07;;;;;;;5.20;3.40;;;;;;;19.48;74.99;96837.97;4996336;28;20065;-76
2021/07/07 08:59:35;;;;;;;5.50;3.63;;;;;;;19.46;75.07;96842.69;4996155;28;20057;-76
2021/07/07 09:02:05;;;;;;;3.70;3.40;;;;;;;19.43;74.63;96843.94;4996716;28;20054;-76
2021/07/07 09:04:34;;;;;;;4.22;2.92;;;;;;;19.39;74.89;96842.78;4996041;28;20088;-76
2021/07/07 09:07:04;;;;;;;2.88;2.10;;;;;;;19.40;76.27;96841.78;4996764;28;20050;-75
2021/07/07 09:09:38;;;;;;;2.80;1.95;;;;;;;19.45;77.05;96844.53;4996326;28;20129;-76
2021/07/07 09:12:14;;;;;;;3.22;1.98;;;;;;;19.51;77.04;96840.97;4996660;28;20058;-75
2021/07/07 09:14:43;;;;;;;3.10;1.73;;;;;;;19.55;76.45;96839.47;4995282;28;20472;-75
2021/07/07 09:17:12;;;;;;;2.05;1.95;;;;;;;19.55;76.49;96852.69;4995398;28;20050;-75
2021/07/07 09:19:40;;;;;;;2.50;1.50;;;;;;;19.59;76.34;96853.03;4996526;28;20112;-74
2021/07/07 09:22:10;;;;;;;4.63;2.70;;;;;;;19.59;76.05;96847.75;4995623;28;20069;-76
2021/07/07 09:24:42;;;;;;;2.40;2.20;;;;;;;19.61;75.58;96842.19;4995745;28;20058;-75
2021/07/07 09:27:12;;;;;;;6.93;2.42;;;;;;;19.63;76.07;96840.91;4996146;28;20504;-76
2021/07/07 09:29:41;;;;;;;2.17;1.55;;;;;;;19.66;76.02;96842.31;4996812;28;20050;-75
2021/07/07 09:32:14;;;;;;;3.00;1.50;;;;;;;19.68;75.41;96846.34;4994162;28;20535;-75
2021/07/07 09:34:42;;;;;;;1.92;1.05;;;;;;;19.70;75.14;96846.13;4995917;28;20451;-75
2021/07/07 09:37:20;;;;;;;4.50;1.40;;;;;;;19.73;75.28;96841.16;5016267;23;20157;-79
2021/07/07 09:39:50;;;;;;;1.30;1.20;;;;;;;19.78;74.85;96852.91;4998505;28;20434;-79
2021/07/07 09:42:28;;;;;;;2.35;1.50;;;;;;;19.81;74.76;96853.25;4997098;28;20046;-79
2021/07/07 09:44:57;;;;;;;1.92;1.00;;;;;;;19.83;74.14;96856.47;4996942;28;20112;-77
2021/07/07 09:47:25;;;;;;;1.95;1.10;;;;;;;19.85;76.11;96850.91;4996742;28;20110;-77
2021/07/07 09:49:53;;;;;;;1.45;1.05;;;;;;;19.88;74.94;96845.16;4997382;28;20077;-76
2021/07/07 09:52:23;;;;;;;2.25;1.38;;;;;;;19.93;76.30;96845.25;4995276;28;20058;-77
2021/07/07 09:54:52;;;;;;;1.55;0.80;;;;;;;19.98;74.88;96841.91;4995276;28;20047;-77
2021/07/07 09:57:20;;;;;;;2.70;1.35;;;;;;;20.02;76.03;96846.50;4995420;28;20046;-77
2021/07/07 09:59:48;;;;;;;1.30;0.90;;;;;;;20.07;76.35;96846.59;4994627;28;20117;-78
2021/07/07 10:02:16;;;;;;;1.50;0.85;;;;;;;20.12;75.28;96854.63;4995444;28;20058;-78
2021/07/07 10:04:44;;;;;;;2.25;0.93;;;;;;;20.15;75.01;96856.81;4995170;28;20054;-78
2021/07/07 10:07:13;;;;;;;2.72;1.20;;;;;;;20.22;76.05;96855.84;4995970;28;20060;-78
2021/07/07 10:09:44;;;;;;;2.30;1.20;;;;;;;20.25;75.88;96860.69;4993614;28;20053;-78
2021/07/07 10:12:13;;;;;;;2.08;1.23;;;;;;;20.26;76.47;96857.00;4995004;28;20058;-77
2021/07/07 10:14:41;;;;;;;5.20;0.80;;;;;;;20.29;75.99;96872.41;4994549;28;20042;-76
2021/07/07 10:17:09;;;;;;;2.65;1.10;;;;;;;20.30;76.06;96872.19;4995396;28;20061;-77
2021/07/07 10:19:38;;;;;;;1.63;1.10;;;;;;;20.33;76.30;96878.84;4995602;28;20085;-77
2021/07/07 10:22:05;;;;;;;2.90;1.13;;;;;;;20.34;75.70;96878.63;4996828;28;20050;-77
2021/07/07 10:24:35;;;;;;;3.22;1.30;;;;;;;20.35;75.51;96887.34;4994910;28;20050;-78
2021/07/07 10:27:06;;;;;;;4.53;1.30;;;;;;;20.31;74.78;96897.66;4995570;28;20054;-77
2021/07/07 10:29:37;;;;;;;0.88;0.68;;;;;;;20.27;74.12;96900.97;4995638;28;20058;-76
2021/07/07 10:32:06;;;;;;;2.13;0.50;;;;;;;20.23;74.54;96897.22;4995835;28;20061;-76
2021/07/07 10:34:35;;;;;;;1.30;0.70;;;;;;;20.17;74.15;96893.66;4994051;28;20050;-75
2021/07/07 10:37:03;;;;;;;1.33;0.60;;;;;;;20.12;73.71;96899.66;4994298;28;20046;-78
2021/07/07 10:39:32;;;;;;;0.75;0.52;;;;;;;20.05;73.82;96893.69;4995686;28;20043;-77
2021/07/07 10:42:02;;;;;;;0.63;0.60;;;;;;;20.01;73.65;96892.56;4993924;28;20181;-75
2021/07/07 10:44:50;;;;;;;0.93;0.52;;;;;;;20.01;74.48;96895.22;4994198;28;20043;-80
2021/07/07 10:47:35;;;;;;;2.72;0.90;;;;;;;20.03;75.08;96894.94;4994064;28;20117;-75
2021/07/07 10:50:04;;;;;;;0.45;0.40;;;;;;;20.04;74.14;96894.72;4994392;28;20054;-75
2021/07/07 10:52:40;;;;;;;0.93;0.70;;;;;;;20.11;74.85;96894.59;4988020;28;20138;-78
2021/07/07 10:55:10;;;;;;;2.58;0.50;;;;;;;20.17;74.09;96901.59;4974366;28;20051;-75
2021/07/07 10:57:38;;;;;;;0.80;0.30;;;;;;;20.19;72.86;96899.53;4974489;28;20506;-77
2021/07/07 11:00:10;;;;;;;0.40;0.40;;;;;;;20.20;71.93;96892.38;4974058;28;20047;-77
2021/07/07 11:02:37;;;;;;;0.63;0.35;;;;;;;20.18;71.74;96895.25;4974993;28;20054;-79
2021/07/07 11:05:08;;;;;;;1.75;0.47;;;;;;;20.16;71.05;96894.72;4973326;28;20043;-77
2021/07/07 11:07:38;;;;;;;1.95;0.90;;;;;;;20.16;71.71;96898.16;4974829;28;20050;-77
2021/07/07 11:10:09;;;;;;;0.82;0.43;;;;;;;20.19;72.89;96891.56;4975519;28;20051;-76
2021/07/07 11:13:17;;;;;;;0.57;0.57;;;;;;;20.24;72.65;96899.59;4975327;28;20053;-77
2021/07/07 11:15:48;;;;;;;1.45;0.60;;;;;;;20.30;73.43;96895.22;4976803;28;20055;-79
2021/07/07 11:18:18;;;;;;;4.85;0.60;;;;;;;20.33;72.10;96890.28;4976716;28;20053;-78
2021/07/07 11:20:55;;;;;;;0.93;0.50;;;;;;;20.36;72.44;96888.97;4977135;28;20062;-77
2021/07/07 11:23:23;;;;;;;1.35;0.60;;;;;;;20.42;73.17;96897.81;4976135;28;20054;-77
2021/07/07 11:25:51;;;;;;;0.22;0.20;;;;;;;20.46;72.04;96893.66;4976308;28;20050;-76
2021/07/07 11:28:18;;;;;;;0.30;0.30;;;;;;;20.50;71.60;96900.09;4979350;28;20051;-78
2021/07/07 11:30:48;;;;;;;0.45;0.40;;;;;;;20.54;71.34;96906.53;4976467;28;20539;-77
2021/07/07 11:33:15;;;;;;;0.43;0.35;;;;;;;20.56;70.43;96904.44;4974886;28;20055;-77
2021/07/07 11:35:43;;;;;;;1.85;0.63;;;;;;;20.56;70.17;96899.94;4975770;28;20062;-78
2021/07/07 11:38:13;;;;;;;0.93;0.43;;;;;;;20.61;71.91;96909.06;4975102;28;20085;-77
2021/07/07 11:40:42;;;;;;;0.40;0.40;;;;;;;20.63;71.42;96905.13;4975994;28;20055;-77